Irvington, AL

11:08 AM CST on March 01, 2015 (GMT -0600)
Driftwood | Change Station
CLOSE
Current Station
Personal Weather Station
Location: Irvington, AL
Elevation: 89 ft
Nearby Weather Stations

Elev 89 ft 30.45 °N, 88.22 °W | Updated 7 seconds ago

Fog
Fog
54.1 °F
Feels Like 54.1 °F
N
2.9
Wind Variable Wind from NNE
Gusts 4.9 mph

Today
High -- | Low -- °F
--% Chance of Precip.
Yesterday
High -- | Low -- °F
Precip. -- in
6:19 AM 5:51 PM
Waxing Gibbous, 86% visible
Pressure 30.41 in
Visibility 2.5 miles
Clouds Overcast 300 ft
Dew Point 53 °F
Humidity 97%
Rainfall 0.00 in
Snow Depth Not available.
UV 1.0 out of 12
Pollen 8.50 out of 12
Air Quality Not available.
Flu Activity Not available.
SPECI KBFM 011629Z 06005KT 2 1/2SM BR OVC003 12/11 A3041 RMK AO2 T01170111

More Conditions Fewer Conditions

Pressure 30.41 in
Visibility 2.5 miles
Clouds Overcast 300 ft
Dew Point 53 °F
Humidity 97%
Rainfall 0.00 in
Snow Depth Not available.
UV 1.0 out of 12
Pollen 8.50 out of 12
Air Quality Not available.
Flu Activity Not available.
SPECI KBFM 011629Z 06005KT 2 1/2SM BR OVC003 12/11 A3041 RMK AO2 T01170111

More Conditions Fewer Conditions

10-Day Weather Forecast

Almanac

Astronomy

Mar. 01, 2015 Rise Set
Actual Time
Civil Twilight
Nautical Twilight
Astronomical Twilight
Moon
Length of Visible Light
Length of Day
Tomorrow will be .
, % of the Moon is Illuminated

Today's Extremes

State Highs State Lows

Community

WunderPhotos

Upload Photos

1,801,462 photos uploaded!

WunderBlogs® & News

Nearby

Air Quality

  Air Quality AQ Index Pollutant
Not available.

Snow Depth

Station Depth Elevation

Earthquake Activity

City Distance Mag. Time & Date
Minimum magnitude displayed is 2.5.

Coastal Water Temperatures

Place Temperature

Nearby Weather Stations